Time;durP1;ratioP1;P1;durP2;ratioP2;P2;SDS_P1;SDS_P2;PMS_P1;PMS_P2;Temp;Humidity;BMP_temperature;BMP_pressure;BME280_temperature;BME280_humidity;BME280_pressure;Samples;Min_cycle;Max_cycle;Signal;HPM_P1;HPM_P2
2021/12/12 00:01:06;;;;;;;171.10;75.85;;;;;;;-0.28;61.67;100667.16;5124160;27;20047;-71
2021/12/12 00:03:39;;;;;;;188.80;83.75;;;;;;;-0.27;61.87;100668.88;5125600;27;20043;-70
2021/12/12 00:06:12;;;;;;;210.25;86.07;;;;;;;-0.23;62.00;100661.88;5126809;27;20840;-70
2021/12/12 00:08:42;;;;;;;205.70;90.90;;;;;;;-0.17;61.89;100673.88;5124190;27;20043;-70
2021/12/12 00:11:12;;;;;;;215.27;95.65;;;;;;;-0.16;61.86;100676.44;5125874;27;20451;-70
2021/12/12 00:13:43;;;;;;;188.88;84.15;;;;;;;-0.12;61.72;100670.28;5125333;27;20050;-71
2021/12/12 00:16:10;;;;;;;204.48;93.97;;;;;;;-0.09;61.86;100672.81;5124560;27;20054;-70
2021/12/12 00:18:38;;;;;;;228.63;97.35;;;;;;;-0.09;62.04;100671.94;5124814;27;20047;-70
2021/12/12 00:21:08;;;;;;;224.73;98.95;;;;;;;-0.09;61.92;100672.81;5124094;27;20047;-70
2021/12/12 00:23:36;;;;;;;243.70;99.15;;;;;;;-0.06;61.91;100677.09;5125058;27;20075;-71
2021/12/12 00:26:05;;;;;;;222.43;99.60;;;;;;;-0.02;61.96;100673.53;5131317;27;20126;-73
2021/12/12 00:28:33;;;;;;;216.30;93.35;;;;;;;0.01;61.61;100673.47;5125799;27;20047;-71
2021/12/12 00:31:08;;;;;;;193.93;91.82;;;;;;;0.04;62.07;100663.03;5124767;27;20455;-71
2021/12/12 00:33:35;;;;;;;188.20;86.80;;;;;;;0.05;61.48;100669.91;5126431;27;20517;-71
2021/12/12 00:36:03;;;;;;;184.30;84.18;;;;;;;0.05;61.84;100674.25;5125218;27;20050;-72
2021/12/12 00:38:34;;;;;;;197.68;88.50;;;;;;;0.02;61.76;100672.59;5126877;27;20487;-72
2021/12/12 00:41:05;;;;;;;198.80;86.75;;;;;;;0.00;61.61;100666.56;5126787;27;20651;-71
2021/12/12 00:43:37;;;;;;;203.63;85.72;;;;;;;-0.06;61.76;100666.69;5126729;27;20074;-71
2021/12/12 00:46:07;;;;;;;212.43;95.25;;;;;;;-0.14;62.14;100669.47;5126608;27;20043;-71
2021/12/12 00:48:35;;;;;;;208.23;92.43;;;;;;;-0.22;62.17;100671.34;5126263;27;20050;-71
2021/12/12 00:51:05;;;;;;;231.38;96.57;;;;;;;-0.29;62.24;100665.47;5125569;27;20075;-70
2021/12/12 00:53:33;;;;;;;215.25;93.55;;;;;;;-0.32;62.29;100668.13;5125171;27;20074;-72
2021/12/12 00:56:00;;;;;;;229.18;97.95;;;;;;;-0.34;62.56;100667.31;5125852;27;20053;-69
2021/12/12 00:58:28;;;;;;;222.85;102.43;;;;;;;-0.32;62.44;100667.28;5124036;27;20065;-70
2021/12/12 01:00:59;;;;;;;226.77;99.63;;;;;;;-0.29;62.29;100670.66;5127122;27;20049;-69
2021/12/12 01:03:30;;;;;;;220.50;98.05;;;;;;;-0.31;62.29;100662.03;5126586;27;20055;-70
2021/12/12 01:05:59;;;;;;;219.50;94.43;;;;;;;-0.34;62.30;100662.09;5127067;27;20550;-71
2021/12/12 01:08:29;;;;;;;211.10;92.45;;;;;;;-0.31;62.21;100671.56;5126548;27;20122;-72
2021/12/12 01:11:02;;;;;;;214.18;92.50;;;;;;;-0.29;62.33;100668.06;5125919;27;20039;-71
2021/12/12 01:13:29;;;;;;;203.55;96.60;;;;;;;-0.29;61.99;100660.28;5126835;27;20047;-73
2021/12/12 01:16:01;;;;;;;223.48;95.40;;;;;;;-0.26;62.21;100656.75;5126793;27;20050;-69
2021/12/12 01:18:34;;;;;;;228.82;102.65;;;;;;;-0.25;62.14;100661.91;5124676;28;20090;-70
2021/12/12 01:21:05;;;;;;;223.55;101.80;;;;;;;-0.26;62.30;100665.38;5125786;28;20552;-69
2021/12/12 01:23:37;;;;;;;220.20;97.10;;;;;;;-0.24;61.99;100667.94;5126960;28;20043;-69
2021/12/12 01:26:09;;;;;;;220.30;96.65;;;;;;;-0.15;61.96;100666.91;5125190;28;20049;-70
2021/12/12 01:28:38;;;;;;;243.85;95.30;;;;;;;-0.11;61.91;100666.81;5124469;28;20055;-68
2021/12/12 01:31:09;;;;;;;216.38;92.70;;;;;;;-0.06;61.85;100664.09;5130808;27;20131;-68
2021/12/12 01:33:37;;;;;;;231.43;102.53;;;;;;;-0.02;61.79;100670.94;5130151;27;20122;-69
2021/12/12 01:36:08;;;;;;;226.48;95.80;;;;;;;0.03;61.87;100669.09;5130770;27;20389;-69
2021/12/12 01:38:53;;;;;;;240.45;101.03;;;;;;;0.07;61.86;100665.53;5130531;27;20645;-71
2021/12/12 01:41:25;;;;;;;213.63;97.88;;;;;;;0.15;61.76;100676.59;5129886;27;20047;-71
2021/12/12 01:43:56;;;;;;;255.10;101.35;;;;;;;0.17;61.43;100677.41;5130295;27;20739;-70
2021/12/12 01:46:27;;;;;;;214.70;94.05;;;;;;;0.20;61.59;100681.72;5129899;27;20047;-72
2021/12/12 01:48:57;;;;;;;212.85;95.03;;;;;;;0.15;61.42;100679.22;5129266;27;20047;-69
2021/12/12 01:51:25;;;;;;;202.82;94.97;;;;;;;0.17;61.77;100684.38;5130039;27;20129;-68
2021/12/12 01:53:59;;;;;;;208.57;91.47;;;;;;;0.19;61.87;100685.19;5128949;27;20049;-70
2021/12/12 01:56:30;;;;;;;216.80;91.45;;;;;;;0.18;61.44;100680.88;5132630;27;20134;-69
2021/12/12 01:59:01;;;;;;;192.88;77.35;;;;;;;0.15;61.76;100681.81;5130773;27;20046;-69
2021/12/12 02:01:32;;;;;;;206.60;81.70;;;;;;;0.14;61.90;100687.03;5129543;27;20043;-71
2021/12/12 02:04:06;;;;;;;178.88;78.55;;;;;;;0.14;61.90;100680.09;5129985;27;20486;-71
2021/12/12 02:06:34;;;;;;;193.77;80.47;;;;;;;0.17;61.60;100680.03;5130696;27;20054;-71
2021/12/12 02:09:02;;;;;;;183.38;83.88;;;;;;;0.23;61.62;100683.38;5111436;27;20054;-72
2021/12/12 02:11:34;;;;;;;219.88;93.47;;;;;;;0.27;61.54;100682.41;5129877;27;20252;-70
2021/12/12 02:14:09;;;;;;;235.57;107.15;;;;;;;0.24;61.37;100680.75;5129982;27;20552;-72
2021/12/12 02:16:38;;;;;;;228.13;103.45;;;;;;;0.25;61.30;100684.19;5129888;27;20141;-69
2021/12/12 02:19:07;;;;;;;226.70;100.47;;;;;;;0.28;61.34;100691.91;5130108;27;20075;-69
2021/12/12 02:21:44;;;;;;;237.10;105.00;;;;;;;0.38;61.31;100685.63;5129749;27;20130;-69
2021/12/12 02:35:05;;;;;;;201.07;98.18;;;;;;;0.47;61.21;100693.19;5129238;27;20080;-69
2021/12/12 02:35:41;;;;;;;262.50;124.13;;;;;;;0.60;61.04;100692.91;5130132;27;20054;-69
2021/12/12 02:38:10;;;;;;;274.27;134.70;;;;;;;0.52;61.38;100691.34;5128737;27;20047;-70
2021/12/12 02:40:42;;;;;;;331.58;187.48;;;;;;;0.35;61.73;100699.53;5111389;27;20546;-69
2021/12/12 02:43:12;;;;;;;352.67;196.10;;;;;;;0.22;62.78;100700.72;5128549;27;20046;-69
2021/12/12 02:45:39;;;;;;;327.13;170.60;;;;;;;0.26;62.79;100696.31;5128175;27;20057;-70
2021/12/12 02:48:09;;;;;;;322.23;160.27;;;;;;;0.28;63.22;100697.97;5129672;27;20186;-70
2021/12/12 02:50:40;;;;;;;309.80;157.48;;;;;;;0.38;63.17;100698.63;5129192;27;20225;-68
2021/12/12 02:53:10;;;;;;;351.52;191.45;;;;;;;0.44;63.04;100698.47;5131129;27;20487;-70
2021/12/12 02:55:41;;;;;;;324.60;170.95;;;;;;;0.49;63.18;100701.81;5130661;27;20053;-70
2021/12/12 02:58:11;;;;;;;268.95;121.60;;;;;;;0.54;63.16;100704.28;5128275;27;20070;-70
2021/12/12 03:00:43;;;;;;;282.17;131.07;;;;;;;0.62;63.10;100712.78;5130233;27;20047;-70
2021/12/12 03:03:11;;;;;;;254.15;123.45;;;;;;;0.70;62.77;100716.06;5130963;27;20047;-70
2021/12/12 03:05:42;;;;;;;241.45;111.15;;;;;;;0.84;62.96;100718.28;5128967;27;20048;-70
2021/12/12 03:08:10;;;;;;;238.25;108.30;;;;;;;0.98;62.55;100720.56;5129515;27;20709;-70
2021/12/12 03:10:42;;;;;;;242.15;102.47;;;;;;;1.12;62.58;100718.44;5129535;27;20055;-69
2021/12/12 03:13:10;;;;;;;229.50;102.88;;;;;;;1.21;62.13;100714.75;5130156;27;20043;-69
2021/12/12 03:15:40;;;;;;;232.32;102.10;;;;;;;1.29;62.26;100715.41;5130399;27;20059;-69
2021/12/12 03:18:11;;;;;;;209.15;99.78;;;;;;;1.34;62.17;100720.50;5130281;27;20043;-70
2021/12/12 03:20:41;;;;;;;221.75;101.88;;;;;;;1.39;62.13;100720.34;5129401;27;20380;-70
2021/12/12 03:23:15;;;;;;;215.95;99.53;;;;;;;1.43;61.94;100719.41;5129616;27;20453;-69
2021/12/12 03:25:45;;;;;;;223.95;93.80;;;;;;;1.47;62.02;100721.00;5130399;27;20040;-70
2021/12/12 03:28:15;;;;;;;224.02;100.10;;;;;;;1.49;61.66;100720.06;5128827;27;20071;-69
2021/12/12 03:30:45;;;;;;;209.82;94.60;;;;;;;1.52;61.87;100724.34;5110687;27;20066;-70
2021/12/12 03:33:13;;;;;;;223.50;98.25;;;;;;;1.43;61.72;100719.41;5129774;27;20055;-70
2021/12/12 03:35:40;;;;;;;225.52;99.55;;;;;;;1.40;62.10;100722.91;5129479;27;20053;-70
2021/12/12 03:38:08;;;;;;;204.70;96.90;;;;;;;1.42;61.99;100723.72;5129377;27;20047;-70
2021/12/12 03:40:39;;;;;;;213.07;95.97;;;;;;;1.44;61.98;100724.56;5129872;27;20406;-70
2021/12/12 03:43:10;;;;;;;214.55;99.70;;;;;;;1.46;61.93;100732.31;5129864;27;20130;-70
2021/12/12 03:45:38;;;;;;;209.30;96.82;;;;;;;1.48;61.82;100738.34;5129954;27;20454;-70
2021/12/12 03:48:09;;;;;;;216.45;97.43;;;;;;;1.51;61.66;100735.63;5128264;27;20043;-70
2021/12/12 03:50:39;;;;;;;201.13;89.32;;;;;;;1.50;61.62;100739.16;5130258;27;20047;-70
2021/12/12 03:53:08;;;;;;;202.00;96.45;;;;;;;1.52;61.55;100753.81;5130478;27;20050;-69
2021/12/12 03:55:37;;;;;;;200.55;92.05;;;;;;;1.54;61.83;100753.78;5129699;27;20452;-69
2021/12/12 03:58:08;;;;;;;211.38;92.20;;;;;;;1.57;61.56;100756.31;5129146;27;20043;-68
2021/12/12 04:00:39;;;;;;;208.30;101.00;;;;;;;1.61;61.58;100757.94;5129720;27;20047;-68
2021/12/12 04:03:09;;;;;;;245.57;117.82;;;;;;;1.51;61.41;100761.66;5129826;27;20053;-69
2021/12/12 04:05:36;;;;;;;251.05;120.45;;;;;;;1.36;61.68;100759.50;5129596;27;20497;-68
2021/12/12 04:08:04;;;;;;;332.58;165.18;;;;;;;1.19;61.83;100766.00;5131011;27;20051;-69
2021/12/12 04:10:31;;;;;;;306.33;138.65;;;;;;;1.08;62.38;100768.00;5129523;27;20043;-69
2021/12/12 04:12:59;;;;;;;357.15;161.02;;;;;;;0.98;62.55;100771.72;5128338;27;20050;-70
2021/12/12 04:15:26;;;;;;;299.73;133.40;;;;;;;0.94;63.05;100774.41;5130069;27;20403;-69
2021/12/12 04:17:54;;;;;;;289.13;123.78;;;;;;;0.95;62.89;100783.94;5129886;27;20124;-68
2021/12/12 04:20:25;;;;;;;349.80;160.15;;;;;;;0.91;63.10;100782.25;5075717;27;20055;-70
2021/12/12 04:22:52;;;;;;;422.58;205.00;;;;;;;0.77;63.58;100792.13;5128878;27;20040;-69
2021/12/12 04:25:19;;;;;;;356.65;162.85;;;;;;;0.70;64.12;100804.44;5129525;27;20047;-67
2021/12/12 04:27:47;;;;;;;360.20;175.93;;;;;;;0.65;64.29;100798.50;5128284;27;20188;-70
2021/12/12 04:30:15;;;;;;;394.17;182.90;;;;;;;0.49;64.88;100810.97;5129353;27;20083;-67
2021/12/12 04:32:44;;;;;;;435.98;211.65;;;;;;;0.33;65.24;100815.63;5129283;27;20047;-68
2021/12/12 04:35:15;;;;;;;355.63;151.48;;;;;;;0.34;65.61;100811.28;5129479;27;20494;-71
2021/12/12 04:37:44;;;;;;;403.27;180.90;;;;;;;0.27;65.62;100823.56;5129909;27;20073;-69
2021/12/12 04:40:15;;;;;;;419.58;166.93;;;;;;;0.22;65.85;100821.94;5129208;27;20083;-68
2021/12/12 04:42:45;;;;;;;486.02;226.77;;;;;;;0.05;66.13;100825.72;5128688;27;20483;-69
2021/12/12 04:45:26;;;;;;;335.50;139.38;;;;;;;0.20;65.82;100829.78;5129810;27;20522;-70
2021/12/12 04:50:54;;;;;;;434.33;182.77;;;;;;;0.23;65.53;100823.66;5128248;27;20143;-68
2021/12/12 04:53:28;;;;;;;369.88;141.55;;;;;;;0.13;65.91;100826.44;5130003;27;20050;-67
2021/12/12 04:55:59;;;;;;;350.80;146.20;;;;;;;0.11;66.11;100829.94;5130404;27;20043;-66
2021/12/12 04:58:37;;;;;;;377.92;158.57;;;;;;;0.13;66.15;100831.63;5131080;27;20053;-70
2021/12/12 05:01:12;;;;;;;369.23;161.95;;;;;;;0.05;66.21;100828.31;5131225;27;20043;-69
2021/12/12 05:03:50;;;;;;;359.08;156.13;;;;;;;0.08;66.44;100825.69;5134042;27;20057;-69
2021/12/12 05:06:26;;;;;;;393.58;172.48;;;;;;;0.08;66.21;100830.88;5132530;27;20054;-70
2021/12/12 05:09:00;;;;;;;449.48;190.50;;;;;;;0.03;66.41;100827.50;5130759;27;20039;-70
2021/12/12 05:11:35;;;;;;;404.08;164.93;;;;;;;-0.02;66.65;100832.81;5130372;27;20501;-68
2021/12/12 05:14:08;;;;;;;426.20;187.90;;;;;;;-0.01;66.65;100825.88;5130593;27;20039;-71
2021/12/12 05:16:40;;;;;;;450.15;179.85;;;;;;;-0.12;66.86;100828.66;5126374;27;20043;-71
2021/12/12 05:19:11;;;;;;;475.30;197.80;;;;;;;-0.17;66.79;100835.69;5130205;27;20039;-70
2021/12/12 05:21:44;;;;;;;439.50;178.30;;;;;;;-0.16;67.14;100841.72;5134875;28;20115;-70
2021/12/12 05:24:13;;;;;;;387.38;158.57;;;;;;;-0.17;67.22;100845.22;5133142;28;20066;-69
2021/12/12 05:26:44;;;;;;;408.20;154.13;;;;;;;-0.12;66.83;100838.22;5133544;28;20134;-70
2021/12/12 05:29:17;;;;;;;419.80;159.70;;;;;;;-0.02;66.75;100839.72;5138000;28;20035;-69
2021/12/12 05:31:48;;;;;;;429.85;163.27;;;;;;;-0.09;67.05;100841.59;5139134;28;20077;-70
2021/12/12 05:34:18;;;;;;;484.35;187.98;;;;;;;-0.11;67.20;100855.47;5132487;28;20065;-69
2021/12/12 05:36:47;;;;;;;418.40;161.90;;;;;;;-0.04;67.12;100859.66;5130337;28;20050;-69
2021/12/12 05:39:16;;;;;;;437.30;155.02;;;;;;;-0.02;67.04;100856.19;5132622;28;20043;-69
2021/12/12 05:41:44;;;;;;;467.25;173.95;;;;;;;-0.06;66.92;100864.03;5131967;28;20132;-68
2021/12/12 05:44:11;;;;;;;487.35;184.02;;;;;;;-0.07;67.45;100870.16;5133670;28;20119;-69
2021/12/12 05:46:38;;;;;;;409.48;157.98;;;;;;;0.05;66.89;100859.50;5144395;27;20053;-69
2021/12/12 05:49:07;;;;;;;444.92;169.18;;;;;;;0.05;66.99;100856.03;5152497;27;20039;-69
2021/12/12 05:51:35;;;;;;;480.90;180.10;;;;;;;0.00;67.19;100850.97;5132574;27;20047;-69
2021/12/12 05:54:06;;;;;;;424.63;186.35;;;;;;;-0.01;67.33;100860.47;5134564;28;20039;-71
2021/12/12 05:56:40;;;;;;;400.13;158.93;;;;;;;0.05;67.22;100858.66;5135667;28;20178;-71
2021/12/12 05:59:11;;;;;;;413.92;160.05;;;;;;;0.12;67.00;100853.28;5135560;28;20039;-71
2021/12/12 06:01:40;;;;;;;383.30;149.98;;;;;;;0.19;66.70;100865.28;5131288;28;20064;-70
2021/12/12 06:04:08;;;;;;;375.13;156.25;;;;;;;0.25;66.76;100871.25;5130763;28;20039;-71
2021/12/12 06:06:40;;;;;;;316.08;114.68;;;;;;;0.35;66.62;100864.97;5133023;28;20061;-70
2021/12/12 06:09:10;;;;;;;266.85;96.78;;;;;;;0.43;66.37;100868.25;5133639;28;20043;-69
2021/12/12 06:11:41;;;;;;;343.48;132.52;;;;;;;0.52;66.16;100865.50;5138617;27;20133;-69
2021/12/12 06:14:09;;;;;;;328.60;121.30;;;;;;;0.41;65.93;100862.25;5143253;27;20051;-70
2021/12/12 06:16:38;;;;;;;315.80;121.63;;;;;;;0.31;66.08;100873.72;5139448;27;20043;-68
2021/12/12 06:19:08;;;;;;;246.35;95.07;;;;;;;0.29;65.71;100885.88;5137258;27;20126;-70
2021/12/12 06:21:36;;;;;;;229.82;83.88;;;;;;;0.29;65.72;100886.75;5134862;27;20130;-69
2021/12/12 06:24:03;;;;;;;239.70;90.95;;;;;;;0.21;65.62;100898.19;5136863;27;20095;-67
2021/12/12 06:26:32;;;;;;;224.85;84.78;;;;;;;0.23;65.85;100896.41;5138295;27;20043;-70
2021/12/12 06:28:59;;;;;;;229.15;79.72;;;;;;;0.27;65.65;100898.03;5135483;27;20053;-69
2021/12/12 06:31:26;;;;;;;213.18;79.78;;;;;;;0.24;65.22;100901.56;5137754;27;20399;-71
2021/12/12 06:33:56;;;;;;;205.05;78.68;;;;;;;0.26;65.27;100899.78;5139930;27;20039;-72
2021/12/12 06:36:24;;;;;;;168.43;55.63;;;;;;;0.33;65.29;100900.53;5142117;27;20094;-70
2021/12/12 06:38:54;;;;;;;205.40;72.20;;;;;;;0.36;65.09;100905.66;5121851;27;20458;-72
2021/12/12 06:41:22;;;;;;;144.02;52.22;;;;;;;0.34;65.05;100900.50;5150855;27;20045;-70
2021/12/12 06:43:52;;;;;;;172.65;51.42;;;;;;;0.39;65.07;100903.00;5142933;27;20102;-72
2021/12/12 06:46:21;;;;;;;294.67;100.10;;;;;;;0.34;64.83;100907.44;5140537;27;20043;-69
2021/12/12 06:48:48;;;;;;;245.75;79.60;;;;;;;0.29;64.60;100899.75;5143076;27;20135;-73
2021/12/12 06:51:18;;;;;;;157.52;51.55;;;;;;;0.35;64.68;100907.41;5143327;27;20053;-70
2021/12/12 06:53:47;;;;;;;156.85;49.15;;;;;;;0.50;64.74;100906.22;5124818;27;20055;-73
2021/12/12 06:56:17;;;;;;;204.88;65.97;;;;;;;0.50;64.50;100907.97;5138391;27;20462;-71
2021/12/12 06:58:45;;;;;;;160.15;54.03;;;;;;;0.47;64.30;100918.44;5116316;27;20413;-69
2021/12/12 07:01:17;;;;;;;143.23;48.05;;;;;;;0.48;64.15;100912.34;5135695;27;20125;-69
2021/12/12 07:03:46;;;;;;;186.52;63.30;;;;;;;0.53;64.36;100916.56;5141516;27;20123;-73
2021/12/12 07:06:17;;;;;;;140.32;49.30;;;;;;;0.50;64.16;100920.97;5157681;27;20442;-73
2021/12/12 07:08:45;;;;;;;246.60;86.15;;;;;;;0.35;64.34;100917.81;5149698;27;20479;-71
2021/12/12 07:11:16;;;;;;;240.45;83.93;;;;;;;0.26;64.52;100928.38;5151072;27;20106;-69
2021/12/12 07:13:43;;;;;;;172.25;61.92;;;;;;;0.27;64.65;100931.81;5157318;27;20206;-70
2021/12/12 07:16:10;;;;;;;131.77;43.75;;;;;;;0.36;64.68;100937.72;5163252;27;20084;-69
2021/12/12 07:18:46;;;;;;;139.90;49.17;;;;;;;0.51;64.63;100940.91;5160162;27;20038;-73
2021/12/12 07:21:16;;;;;;;236.52;92.65;;;;;;;0.36;64.39;100948.09;5146892;27;20066;-68
2021/12/12 07:23:45;;;;;;;200.55;74.63;;;;;;;0.25;64.32;100952.63;5152189;27;20031;-73
2021/12/12 07:26:14;;;;;;;225.55;88.85;;;;;;;0.25;64.51;100947.44;5145812;27;20086;-68
2021/12/12 07:28:43;;;;;;;227.02;88.82;;;;;;;0.07;65.14;100952.97;5140856;27;20124;-71
2021/12/12 07:31:12;;;;;;;204.95;72.65;;;;;;;0.15;64.91;100962.34;5141009;27;20122;-70
2021/12/12 07:33:41;;;;;;;150.10;49.17;;;;;;;0.31;64.66;100959.47;5144795;27;20059;-71
2021/12/12 07:36:10;;;;;;;126.10;45.67;;;;;;;0.45;64.46;100960.06;5144364;27;20088;-73
2021/12/12 07:38:42;;;;;;;125.38;41.58;;;;;;;0.57;64.13;100957.22;5138316;27;20103;-70
2021/12/12 07:41:09;;;;;;;104.65;35.47;;;;;;;0.68;64.05;100963.94;5141801;27;20108;-70
2021/12/12 07:43:37;;;;;;;107.65;36.85;;;;;;;0.73;63.81;100964.72;5138369;27;20043;-69
2021/12/12 07:46:06;;;;;;;110.70;39.75;;;;;;;0.78;63.78;100962.03;5141420;27;20122;-70
2021/12/12 07:48:35;;;;;;;117.10;37.88;;;;;;;0.86;63.54;100958.34;5133477;27;20049;-70
2021/12/12 07:51:04;;;;;;;149.07;58.67;;;;;;;0.91;63.64;100963.47;5118908;27;20384;-70
2021/12/12 07:53:31;;;;;;;172.80;68.22;;;;;;;0.72;63.42;100971.66;5150455;27;20111;-72
2021/12/12 07:55:59;;;;;;;151.88;54.55;;;;;;;0.65;63.85;100964.88;5165072;27;20046;-72
2021/12/12 07:58:28;;;;;;;172.70;61.67;;;;;;;0.48;63.89;100969.53;5163610;27;20106;-71
2021/12/12 08:00:59;;;;;;;189.27;74.15;;;;;;;0.48;64.08;100973.00;5156364;27;20122;-69
2021/12/12 08:03:30;;;;;;;162.38;58.25;;;;;;;0.46;63.99;100986.91;5165252;27;20380;-72
2021/12/12 08:05:59;;;;;;;206.50;59.28;;;;;;;0.57;63.77;100982.34;5162501;27;20102;-76
2021/12/12 08:08:30;;;;;;;162.98;66.32;;;;;;;0.61;63.46;100985.75;5146635;27;20058;-74
2021/12/12 08:10:58;;;;;;;123.90;41.72;;;;;;;0.54;63.79;100991.09;5143200;27;20074;-72
2021/12/12 08:13:26;;;;;;;96.68;34.90;;;;;;;0.70;63.67;100990.75;5142524;27;20130;-75
2021/12/12 08:15:54;;;;;;;164.52;58.90;;;;;;;0.82;63.50;100989.69;5134814;27;20142;-72
2021/12/12 08:18:22;;;;;;;188.95;67.00;;;;;;;0.69;63.34;100991.66;5141532;27;20273;-71
2021/12/12 08:20:52;;;;;;;143.38;52.28;;;;;;;0.57;63.97;100996.19;5150358;27;20660;-71
2021/12/12 08:23:22;;;;;;;114.30;38.92;;;;;;;0.66;63.64;100992.56;5144418;27;20158;-72
2021/12/12 08:25:54;;;;;;;123.47;38.30;;;;;;;0.91;63.46;100982.53;5146074;27;20138;-72
2021/12/12 08:28:22;;;;;;;155.80;44.00;;;;;;;1.11;63.10;100994.25;5146933;27;20059;-72
2021/12/12 08:30:51;;;;;;;161.07;58.10;;;;;;;1.14;62.83;100996.81;5140935;27;20693;-72
2021/12/12 08:33:19;;;;;;;154.85;57.53;;;;;;;1.14;63.01;100999.41;5140206;27;20137;-71
2021/12/12 08:35:47;;;;;;;173.60;66.70;;;;;;;0.98;63.01;100996.28;5142842;27;20086;-73
2021/12/12 08:38:15;;;;;;;140.65;46.88;;;;;;;0.99;63.19;100997.13;5140856;27;20122;-73
2021/12/12 08:40:46;;;;;;;144.75;46.80;;;;;;;1.09;62.97;100994.28;5144906;27;20049;-73
2021/12/12 08:43:16;;;;;;;122.03;45.03;;;;;;;1.15;62.90;100998.50;5148813;27;20098;-73
2021/12/12 08:45:46;;;;;;;151.65;61.53;;;;;;;1.18;62.63;100998.44;5145452;27;20074;-70
2021/12/12 08:48:16;;;;;;;123.32;43.97;;;;;;;1.04;62.88;100993.53;5136805;27;20111;-73
2021/12/12 08:50:44;;;;;;;117.60;42.08;;;;;;;1.07;62.94;100996.06;5143246;27;20050;-72
2021/12/12 08:53:16;;;;;;;116.45;38.97;;;;;;;1.23;62.83;100987.94;5136512;27;20039;-74
2021/12/12 08:55:45;;;;;;;124.28;39.45;;;;;;;1.47;62.34;100987.38;5124667;27;20062;-74
2021/12/12 08:58:17;;;;;;;115.05;38.38;;;;;;;1.67;62.31;100975.66;5142432;27;20062;-72
2021/12/12 09:00:50;;;;;;;104.55;33.33;;;;;;;1.81;62.34;100964.91;5139047;27;20042;-72
2021/12/12 09:03:21;;;;;;;115.00;39.83;;;;;;;1.98;61.79;100973.16;5137659;27;20122;-73
2021/12/12 09:05:48;;;;;;;123.88;39.67;;;;;;;2.16;61.63;100970.94;5142321;27;20026;-75
2021/12/12 09:08:22;;;;;;;123.38;39.42;;;;;;;2.25;61.46;100981.13;5147633;27;20058;-72
2021/12/12 09:10:56;;;;;;;149.57;48.13;;;;;;;2.32;61.38;100977.47;5156090;27;20054;-73
2021/12/12 09:13:31;;;;;;;123.90;41.15;;;;;;;2.33;61.35;100975.75;5152359;27;20059;-73
2021/12/12 09:16:05;;;;;;;124.20;42.33;;;;;;;2.37;61.35;100980.81;5144535;27;20099;-72
2021/12/12 09:18:37;;;;;;;111.30;40.05;;;;;;;2.42;61.20;100971.13;5142287;27;20609;-73
2021/12/12 09:21:10;;;;;;;109.10;34.38;;;;;;;2.43;61.44;100958.94;5141835;27;20114;-72
2021/12/12 09:23:45;;;;;;;129.43;46.20;;;;;;;2.45;61.25;100964.97;5155693;27;20043;-71
2021/12/12 09:26:18;;;;;;;131.40;39.70;;;;;;;2.49;61.28;100959.63;5152957;27;20098;-72
2021/12/12 09:28:55;;;;;;;89.47;36.47;;;;;;;2.56;61.33;100951.66;5146760;27;20049;-72
2021/12/12 09:31:28;;;;;;;105.10;38.08;;;;;;;2.64;60.85;100950.50;5147641;27;20149;-71
2021/12/12 09:33:59;;;;;;;127.00;42.75;;;;;;;2.70;61.11;100953.84;5139733;27;20116;-71
2021/12/12 09:36:39;;;;;;;128.50;43.58;;;;;;;2.78;61.06;100957.94;5142626;27;20070;-72
2021/12/12 09:39:11;;;;;;;122.65;42.80;;;;;;;2.79;60.87;100964.00;5146567;27;20089;-71
2021/12/12 09:42:02;;;;;;;114.22;41.45;;;;;;;2.85;60.97;100964.69;5158966;27;20118;-74
2021/12/12 09:45:02;;;;;;;108.85;38.65;;;;;;;2.96;60.93;100971.38;5151939;27;20070;-72
2021/12/12 09:48:27;;;;;;;116.95;35.70;;;;;;;2.97;60.89;100960.00;5067074;28;20121;-73
2021/12/12 09:51:14;;;;;;;119.63;40.28;;;;;;;2.96;60.99;100958.31;5082991;28;20055;-71
2021/12/12 09:54:14;;;;;;;119.25;39.10;;;;;;;2.99;61.13;100947.75;5089500;28;20060;-73
2021/12/12 09:56:48;;;;;;;136.18;42.33;;;;;;;3.11;60.77;100942.19;5081127;28;20068;-75
2021/12/12 09:59:32;;;;;;;208.90;61.67;;;;;;;3.02;60.47;100934.63;5081340;28;20645;-70
2021/12/12 10:02:12;;;;;;;150.70;44.25;;;;;;;3.10;60.53;100930.06;5062985;28;20052;-73
2021/12/12 10:04:52;;;;;;;141.02;45.45;;;;;;;3.36;60.17;100923.16;5052105;28;20049;-70
2021/12/12 10:07:31;;;;;;;120.90;40.92;;;;;;;3.44;60.17;100926.38;5053765;28;20076;-71
2021/12/12 10:10:00;;;;;;;138.15;48.45;;;;;;;3.42;60.15;100954.28;5051030;28;20041;-72
2021/12/12 10:12:30;;;;;;;182.60;60.67;;;;;;;3.09;60.21;100957.03;5049773;28;20049;-72
2021/12/12 10:15:09;;;;;;;133.18;42.72;;;;;;;2.96;60.92;100951.34;5048449;28;20053;-75
2021/12/12 10:17:41;;;;;;;130.75;49.95;;;;;;;2.84;61.05;100959.50;5046764;28;20044;-71
2021/12/12 10:20:12;;;;;;;129.40;43.00;;;;;;;2.81;61.24;100965.69;5048605;28;20045;-71
2021/12/12 10:22:56;;;;;;;120.35;43.63;;;;;;;2.81;61.24;100954.38;5031202;28;21015;-71
2021/12/12 10:25:27;;;;;;;147.10;56.53;;;;;;;2.82;61.07;100956.09;5081269;28;20622;-72
2021/12/12 10:28:00;;;;;;;113.32;46.45;;;;;;;2.84;61.27;100952.53;5096785;28;20058;-75
2021/12/12 10:30:31;;;;;;;111.97;44.00;;;;;;;2.94;60.96;100947.91;5086186;28;20060;-74
2021/12/12 10:33:10;;;;;;;116.60;43.55;;;;;;;2.86;60.87;100949.88;5088029;28;20036;-73
2021/12/12 10:35:42;;;;;;;99.18;37.70;;;;;;;2.90;60.77;100951.53;5098609;28;20043;-72
2021/12/12 10:38:15;;;;;;;104.95;37.03;;;;;;;3.07;60.62;100940.56;5096988;28;20044;-73
2021/12/12 10:40:47;;;;;;;108.70;41.55;;;;;;;3.22;60.41;100940.13;5100696;28;20047;-72
2021/12/12 10:43:22;;;;;;;96.13;38.10;;;;;;;3.33;60.42;100931.06;5102520;28;20526;-70
2021/12/12 10:45:56;;;;;;;106.88;41.47;;;;;;;3.35;60.33;100927.53;5097738;28;20096;-71
2021/12/12 10:48:31;;;;;;;96.65;37.17;;;;;;;3.34;60.48;100922.34;5097903;28;20078;-70
2021/12/12 10:51:02;;;;;;;;;;;;;;;3.50;60.00;100918.34;5102762;28;20064;-72
2021/12/12 10:53:36;;;;;;;100.60;35.65;;;;;;;3.25;60.53;100921.72;5096445;28;19924;-70
2021/12/12 10:56:06;;;;;;;90.65;33.90;;;;;;;3.24;60.62;100909.59;5098832;28;20052;-70
2021/12/12 10:58:39;;;;;;;107.47;42.63;;;;;;;3.35;60.49;100910.97;5100222;28;20052;-72
2021/12/12 11:01:09;;;;;;;104.97;39.70;;;;;;;3.20;60.44;100928.84;5100645;28;20518;-72
2021/12/12 11:03:40;;;;;;;106.03;38.35;;;;;;;3.15;60.91;100925.53;5104307;28;20510;-70
2021/12/12 11:06:12;;;;;;;127.18;39.85;;;;;;;3.26;60.59;100933.03;5091460;28;20044;-72
2021/12/12 11:08:44;;;;;;;92.30;37.80;;;;;;;3.20;60.80;100926.22;5093022;28;20476;-71
2021/12/12 11:11:15;;;;;;;106.72;36.03;;;;;;;3.18;60.67;100925.44;5097682;28;20682;-69
2021/12/12 11:13:50;;;;;;;103.78;39.13;;;;;;;3.23;60.73;100933.97;5109970;27;20126;-71
2021/12/12 11:16:20;;;;;;;105.03;38.88;;;;;;;3.21;60.50;100934.94;5145964;27;20066;-71
2021/12/12 11:18:55;;;;;;;90.45;36.45;;;;;;;3.09;60.63;100930.09;5142269;27;20066;-72
2021/12/12 11:21:27;;;;;;;90.13;36.30;;;;;;;2.98;60.74;100939.09;5138017;27;20043;-72
2021/12/12 11:24:00;;;;;;;111.60;43.95;;;;;;;3.00;60.63;100937.28;5145427;27;20710;-70
2021/12/12 11:26:34;;;;;;;108.18;39.95;;;;;;;3.03;60.72;100933.75;5132193;27;20047;-71
2021/12/12 11:29:05;;;;;;;116.78;41.03;;;;;;;3.15;60.52;100936.00;5136729;27;20574;-70
2021/12/12 11:31:39;;;;;;;115.88;37.65;;;;;;;3.28;60.40;100941.69;5131918;27;20199;-72
2021/12/12 11:34:10;;;;;;;103.68;38.95;;;;;;;3.37;60.32;100940.53;5121479;27;20051;-70
2021/12/12 11:36:46;;;;;;;117.82;43.55;;;;;;;3.30;60.17;100942.47;5124258;27;20042;-71